Terminal Aerodrome Forecast
Issued by NWS

Home | Current Version | Previous Version | Text Only | Print | Product List | Glossary On
Versions: 1 2 3 4 5 6 7 8 9 10 11 12 13 14
856
FTUS42 KTBW 211722
TAFPGD
TAF
KPGD 211722Z 2118/2218 08012G18KT P6SM FEW030 SCT060
     FM212300 08010KT P6SM SCT035 BKN150
     FM221500 13012G17KT P6SM SCT025 BKN100=

USA.gov is the U.S. government's official web portal to all federal, state and local government web resources and services.